Terminal Aerodrome Forecast
Issued by NWS Louisville, KY

Home | Current Version | Previous Version | Text Only | Print | Product List | Glossary On
Versions: 1 2 3 4 5 6 7 8 9 10 11 12 13 14 15 16 17
000
FTUS43 KLMK 241727
TAFBWG
TAF
KBWG 241727Z 2418/2518 20017G28KT P6SM SCT040
     FM250100 24011G25KT P6SM -SHRA OVC035
      TEMPO 2501/2505 5SM -TSRA BR OVC030CB
     FM250500 28010G20KT P6SM BKN040=

USA.gov is the U.S. government's official web portal to all federal, state and local government web resources and services.